createdAt,value
2022-12-22T00:00:38.325Z,-0.51
2022-12-22T00:03:29.739Z,-0.64
2022-12-22T00:06:15.815Z,-0.62
2022-12-22T00:09:05.430Z,-0.62
2022-12-22T00:11:52.146Z,-0.63
2022-12-22T00:14:38.124Z,-0.67
2022-12-22T00:17:44.664Z,-0.76
2022-12-22T00:20:31.646Z,-0.43
2022-12-22T00:23:17.917Z,-0.46
2022-12-22T00:26:04.112Z,-0.58
2022-12-22T00:28:50.000Z,-0.57
2022-12-22T00:31:35.853Z,-0.58
2022-12-22T00:34:25.657Z,-0.54
2022-12-22T00:37:13.210Z,-0.40
2022-12-22T00:39:58.911Z,-0.38
2022-12-22T00:42:45.326Z,-0.63
2022-12-22T00:45:31.409Z,-0.63
2022-12-22T00:48:18.193Z,-0.73
2022-12-22T00:51:05.590Z,-0.46
2022-12-22T00:53:51.273Z,-0.60
2022-12-22T00:56:37.310Z,-0.62
2022-12-22T00:59:23.496Z,-0.62
2022-12-22T01:02:09.572Z,-0.67
2022-12-22T01:04:55.202Z,-0.71
2022-12-22T01:07:43.315Z,-0.76
2022-12-22T01:10:31.759Z,-0.74
2022-12-22T01:13:18.455Z,-0.76
2022-12-22T01:16:04.139Z,-0.78
2022-12-22T01:18:49.762Z,-0.85
2022-12-22T01:21:36.823Z,-0.95
2022-12-22T01:24:29.674Z,-0.91
2022-12-22T01:27:15.381Z,-0.90
2022-12-22T01:30:01.320Z,-0.82
2022-12-22T01:32:47.567Z,-0.82
2022-12-22T01:35:38.318Z,-0.84
2022-12-22T01:38:24.208Z,-0.77
2022-12-22T01:41:12.028Z,-0.77
2022-12-22T01:43:58.705Z,-0.77
2022-12-22T01:46:46.797Z,-0.79
2022-12-22T01:49:34.814Z,-0.80
2022-12-22T01:52:21.133Z,-0.77
2022-12-22T01:55:07.270Z,-0.78
2022-12-22T01:57:55.160Z,-0.81
2022-12-22T02:00:41.437Z,-0.96
2022-12-22T02:03:34.306Z,-0.99
2022-12-22T02:06:31.411Z,-0.83
2022-12-22T02:09:32.759Z,-0.57
2022-12-22T02:12:23.811Z,-0.72
2022-12-22T02:15:19.638Z,-0.78
2022-12-22T02:18:12.166Z,-0.78
2022-12-22T02:21:00.184Z,-0.86
2022-12-22T02:24:03.351Z,-0.99
2022-12-22T02:26:52.482Z,-1.10
2022-12-22T02:29:41.152Z,-1.22
2022-12-22T02:32:27.220Z,-1.28
2022-12-22T02:35:12.803Z,-1.31
2022-12-22T02:38:04.342Z,-1.35
2022-12-22T02:40:54.307Z,-1.41
2022-12-22T02:43:53.494Z,-1.47
2022-12-22T02:46:43.166Z,-1.50
2022-12-22T02:49:36.088Z,-1.54
2022-12-22T02:52:29.242Z,-1.52
2022-12-22T02:55:15.160Z,-1.46
2022-12-22T02:58:00.606Z,-1.49
2022-12-22T03:00:48.499Z,-1.60
2022-12-22T03:03:34.297Z,-1.70
2022-12-22T03:06:20.096Z,-1.69
2022-12-22T03:09:05.553Z,-1.60
2022-12-22T03:11:51.514Z,-1.62
2022-12-22T03:14:37.109Z,-1.56
2022-12-22T03:17:24.722Z,-1.67
2022-12-22T03:20:10.086Z,-1.73
2022-12-22T03:22:55.782Z,-1.73
2022-12-22T03:25:41.895Z,-1.79
2022-12-22T03:28:11.539Z,-1.73
2022-12-22T03:30:40.711Z,-1.69
2022-12-22T03:33:10.470Z,-1.63
2022-12-22T03:35:38.713Z,-1.61
2022-12-22T03:38:07.044Z,-1.64
2022-12-22T03:40:35.353Z,-1.56
2022-12-22T03:43:20.793Z,-1.61
2022-12-22T03:46:06.304Z,-1.54
2022-12-22T03:48:36.057Z,-1.50
2022-12-22T03:51:04.530Z,-1.48
2022-12-22T03:53:32.966Z,-1.44
2022-12-22T03:56:07.279Z,-1.44
2022-12-22T03:58:36.220Z,-1.37
2022-12-22T04:01:08.153Z,-1.34
2022-12-22T04:03:38.143Z,-1.28
2022-12-22T04:06:06.649Z,-1.20
2022-12-22T04:08:35.388Z,-1.21
2022-12-22T04:11:20.931Z,-1.19
2022-12-22T04:13:49.358Z,-1.25
2022-12-22T04:16:17.782Z,-1.23
2022-12-22T04:18:47.489Z,-1.19
2022-12-22T04:21:15.987Z,-1.10
2022-12-22T04:23:44.373Z,-1.07
2022-12-22T04:26:12.765Z,-1.09
2022-12-22T04:28:41.088Z,-1.00
2022-12-22T04:31:09.492Z,-0.97
2022-12-22T04:33:37.816Z,-1.09
2022-12-22T04:36:08.300Z,-1.01
2022-12-22T04:38:36.665Z,-0.98
2022-12-22T04:41:05.567Z,-0.99
2022-12-22T04:43:39.383Z,-1.00
2022-12-22T04:46:08.299Z,-1.07
2022-12-22T04:48:37.025Z,-1.05
2022-12-22T04:51:07.578Z,-1.12
2022-12-22T04:53:36.048Z,-1.15
2022-12-22T04:56:05.930Z,-1.21
2022-12-22T04:58:35.041Z,-1.30
2022-12-22T05:01:10.670Z,-1.30
2022-12-22T05:03:39.712Z,-1.38
2022-12-22T05:06:09.843Z,-1.45
2022-12-22T05:08:38.394Z,-1.57
2022-12-22T05:11:06.983Z,-1.66
2022-12-22T05:13:35.366Z,-1.66
2022-12-22T05:16:08.063Z,-1.75
2022-12-22T05:18:37.437Z,-1.79
2022-12-22T05:21:08.264Z,-1.81
2022-12-22T05:23:38.236Z,-1.84
2022-12-22T05:26:06.974Z,-1.87
2022-12-22T05:28:35.413Z,-1.92
2022-12-22T05:31:05.656Z,-1.99
2022-12-22T05:33:34.063Z,-2.01
2022-12-22T05:36:03.138Z,-1.98
2022-12-22T05:38:31.573Z,-2.04
2022-12-22T05:41:04.348Z,-2.03
2022-12-22T05:43:33.415Z,-2.01
2022-12-22T05:46:03.808Z,-2.03
2022-12-22T05:48:37.919Z,-2.03
2022-12-22T05:51:08.290Z,-2.13
2022-12-22T05:53:37.104Z,-2.16
2022-12-22T05:56:08.356Z,-2.14
2022-12-22T05:58:39.286Z,-2.15
2022-12-22T06:01:08.606Z,-2.19
2022-12-22T06:03:37.512Z,-2.19
2022-12-22T06:06:06.669Z,-2.17
2022-12-22T06:08:35.131Z,-2.19
2022-12-22T06:11:03.521Z,-2.19
2022-12-22T06:13:33.614Z,-2.16
2022-12-22T06:16:03.395Z,-2.15
2022-12-22T06:18:32.543Z,-2.15
2022-12-22T06:21:00.926Z,-2.17
2022-12-22T06:23:30.422Z,-2.16
2022-12-22T06:25:59.970Z,-2.21
2022-12-22T06:28:29.142Z,-2.20
2022-12-22T06:30:59.247Z,-2.16
2022-12-22T06:33:27.820Z,-2.03
2022-12-22T06:35:59.006Z,-2.04
2022-12-22T06:38:29.153Z,-2.07
2022-12-22T06:40:57.572Z,-2.12
2022-12-22T06:43:25.258Z,-2.15
2022-12-22T06:45:55.392Z,-2.16
2022-12-22T06:48:25.417Z,-2.15
2022-12-22T06:50:53.758Z,-2.22
2022-12-22T06:53:22.099Z,-2.19
2022-12-22T06:55:50.593Z,-2.18
2022-12-22T06:58:19.193Z,-2.17
2022-12-22T07:00:49.898Z,-2.13
2022-12-22T07:03:18.385Z,-2.14
2022-12-22T07:05:48.432Z,-2.16
2022-12-22T07:08:16.900Z,-2.22
2022-12-22T07:11:01.637Z,-2.17
2022-12-22T07:13:34.318Z,-2.15
2022-12-22T07:16:03.812Z,-2.17
2022-12-22T07:18:33.382Z,-2.12
2022-12-22T07:21:05.246Z,-1.97
2022-12-22T07:23:35.641Z,-1.87
2022-12-22T07:26:04.541Z,-1.83
2022-12-22T07:28:34.301Z,-1.64
2022-12-22T07:31:02.944Z,-1.47
2022-12-22T07:33:31.615Z,-1.31
2022-12-22T07:36:06.739Z,-1.20
2022-12-22T07:38:36.827Z,-1.16
2022-12-22T07:41:26.215Z,-1.01
2022-12-22T07:43:53.785Z,-0.86
2022-12-22T07:46:22.465Z,-0.83
2022-12-22T07:49:09.087Z,-0.62
2022-12-22T07:51:40.954Z,-0.40
2022-12-22T07:54:10.440Z,-0.27
2022-12-22T07:56:39.333Z,-0.10
2022-12-22T07:59:08.625Z,-0.02
2022-12-22T08:01:37.264Z,-0.07
2022-12-22T08:04:06.525Z,-0.11
2022-12-22T08:06:35.458Z,0.21
2022-12-22T08:09:06.425Z,0.28
2022-12-22T08:11:35.059Z,0.35
2022-12-22T08:14:04.845Z,0.42
2022-12-22T08:16:33.358Z,0.58
2022-12-22T08:19:03.827Z,0.58
2022-12-22T08:21:33.456Z,0.61
2022-12-22T08:24:02.245Z,0.73
2022-12-22T08:26:36.567Z,0.66
2022-12-22T08:29:19.258Z,0.43
2022-12-22T08:31:56.218Z,0.49
2022-12-22T08:34:24.639Z,0.59
2022-12-22T08:36:56.676Z,0.66
2022-12-22T08:39:27.567Z,0.71
2022-12-22T08:41:57.778Z,0.77
2022-12-22T08:44:27.485Z,0.49
2022-12-22T08:46:56.868Z,0.33
2022-12-22T08:49:25.477Z,0.34
2022-12-22T08:51:55.477Z,0.26
2022-12-22T08:54:23.903Z,0.26
2022-12-22T08:56:53.115Z,0.10
2022-12-22T08:59:23.123Z,0.09
2022-12-22T09:01:52.918Z,0.21
2022-12-22T09:04:22.837Z,0.18
2022-12-22T09:06:53.035Z,0.24
2022-12-22T09:09:21.893Z,0.56
2022-12-22T09:11:50.503Z,0.94
2022-12-22T09:14:19.095Z,1.37
2022-12-22T09:16:49.087Z,1.81
2022-12-22T09:19:17.505Z,2.14
2022-12-22T09:21:46.238Z,2.59
2022-12-22T09:24:18.110Z,2.89
2022-12-22T09:26:46.690Z,3.30
2022-12-22T09:29:16.416Z,3.62
2022-12-22T09:31:45.031Z,3.99
2022-12-22T09:34:18.321Z,4.41
2022-12-22T09:36:48.737Z,5.10
2022-12-22T09:39:18.404Z,5.53
2022-12-22T09:41:52.152Z,4.42
2022-12-22T09:44:26.002Z,4.81
2022-12-22T09:46:55.973Z,4.61
2022-12-22T09:49:26.326Z,4.32
2022-12-22T09:51:58.001Z,4.10
2022-12-22T09:54:27.048Z,4.36
2022-12-22T09:56:55.471Z,4.24
2022-12-22T09:59:29.096Z,4.29
2022-12-22T10:02:20.656Z,4.60
2022-12-22T10:04:58.639Z,4.66
2022-12-22T10:07:33.505Z,4.95
2022-12-22T10:10:13.688Z,5.87
2022-12-22T10:12:43.633Z,6.38
2022-12-22T10:15:21.426Z,6.40
2022-12-22T10:17:52.273Z,6.51
2022-12-22T10:20:27.434Z,6.59
2022-12-22T10:22:59.224Z,6.74
2022-12-22T10:25:45.077Z,6.91
2022-12-22T10:28:25.245Z,6.74
2022-12-22T10:31:13.233Z,6.55
2022-12-22T10:33:47.068Z,6.48
2022-12-22T10:36:22.384Z,6.77
2022-12-22T10:38:57.735Z,6.78
2022-12-22T10:41:27.809Z,5.87
2022-12-22T10:43:57.655Z,6.21
2022-12-22T10:46:35.108Z,6.28
2022-12-22T10:49:19.997Z,6.95
2022-12-22T10:51:53.227Z,6.92
2022-12-22T10:54:33.184Z,6.48
2022-12-22T10:57:03.951Z,6.52
2022-12-22T10:59:33.815Z,6.75
2022-12-22T11:02:33.076Z,7.07
2022-12-22T11:05:07.741Z,7.02
2022-12-22T11:07:40.410Z,6.77
2022-12-22T11:10:21.328Z,6.11
2022-12-22T11:13:13.528Z,5.84
2022-12-22T11:15:48.882Z,6.07
2022-12-22T11:18:37.767Z,6.14
2022-12-22T11:21:10.469Z,6.33
2022-12-22T11:23:45.524Z,5.89
2022-12-22T11:26:20.096Z,6.10
2022-12-22T11:28:57.243Z,6.20
2022-12-22T11:31:38.788Z,6.17
2022-12-22T11:34:20.890Z,6.05
2022-12-22T11:37:05.634Z,6.45
2022-12-22T11:39:40.866Z,6.77
2022-12-22T11:42:23.303Z,7.82
2022-12-22T11:44:56.535Z,8.85
2022-12-22T11:47:30.687Z,8.93
2022-12-22T11:50:52.628Z,9.07
2022-12-22T11:53:29.724Z,8.56
2022-12-22T11:56:08.231Z,8.05
2022-12-22T11:58:49.837Z,7.68
2022-12-22T12:01:36.901Z,6.75
2022-12-22T12:04:33.907Z,6.61
2022-12-22T12:07:14.219Z,6.72
2022-12-22T12:09:48.890Z,6.69
2022-12-22T12:12:23.029Z,6.82
2022-12-22T12:15:00.147Z,7.04
2022-12-22T12:17:37.492Z,7.28
2022-12-22T12:20:31.013Z,8.04
2022-12-22T12:23:08.526Z,8.20
2022-12-22T12:25:40.789Z,8.16
2022-12-22T12:28:22.711Z,8.03
2022-12-22T12:30:55.231Z,7.93
2022-12-22T12:33:32.866Z,7.10
2022-12-22T12:36:04.629Z,6.93
2022-12-22T12:39:06.945Z,6.82
2022-12-22T12:41:34.070Z,7.11
2022-12-22T12:44:04.991Z,6.90
2022-12-22T12:47:10.862Z,6.95
2022-12-22T12:49:59.661Z,6.91
2022-12-22T12:53:16.801Z,6.85
2022-12-22T12:56:06.619Z,6.65
2022-12-22T12:58:50.657Z,6.41
2022-12-22T13:01:56.236Z,6.32
2022-12-22T13:05:06.147Z,6.15
2022-12-22T13:08:08.202Z,5.87
2022-12-22T13:10:39.728Z,5.71
2022-12-22T13:13:12.476Z,5.37
2022-12-22T13:15:42.323Z,5.17
2022-12-22T13:18:47.495Z,5.14
2022-12-22T13:24:25.144Z,5.37
2022-12-22T13:26:56.219Z,5.16
2022-12-22T13:29:29.641Z,5.12
2022-12-22T13:32:02.348Z,5.07
2022-12-22T13:35:04.281Z,5.10
2022-12-22T13:37:29.764Z,4.93
2022-12-22T13:40:21.210Z,4.89
2022-12-22T13:42:52.134Z,5.03
2022-12-22T13:45:30.425Z,5.00
2022-12-22T13:48:00.905Z,5.07
2022-12-22T13:50:32.760Z,5.07
2022-12-22T13:53:02.671Z,5.28
2022-12-22T13:55:33.865Z,5.23
2022-12-22T13:58:09.364Z,5.09
2022-12-22T14:00:40.065Z,5.46
2022-12-22T14:03:41.850Z,5.28
2022-12-22T14:06:21.661Z,5.32
2022-12-22T14:08:50.026Z,5.29
2022-12-22T14:11:20.237Z,5.02
2022-12-22T14:13:49.089Z,5.16
2022-12-22T14:16:25.067Z,5.29
2022-12-22T14:18:54.156Z,5.10
2022-12-22T14:21:22.946Z,5.02
2022-12-22T14:23:51.390Z,5.24
2022-12-22T14:26:24.517Z,5.37
2022-12-22T14:28:54.823Z,5.39
2022-12-22T14:31:23.173Z,5.00
2022-12-22T14:33:55.635Z,4.74
2022-12-22T14:36:25.960Z,4.75
2022-12-22T14:39:02.300Z,4.52
2022-12-22T14:41:51.519Z,4.41
2022-12-22T14:44:23.699Z,4.46
2022-12-22T14:47:07.044Z,4.23
2022-12-22T14:49:36.340Z,4.06
2022-12-22T14:52:19.682Z,4.06
2022-12-22T14:54:49.244Z,4.30
2022-12-22T14:57:30.443Z,4.26
2022-12-22T15:00:07.805Z,4.20
2022-12-22T15:02:40.098Z,4.20
2022-12-22T15:05:17.812Z,3.95
2022-12-22T15:08:08.351Z,3.84
2022-12-22T15:10:42.944Z,3.78
2022-12-22T15:13:18.031Z,3.79
2022-12-22T15:15:46.527Z,3.81
2022-12-22T15:18:16.253Z,3.85
2022-12-22T15:20:45.208Z,4.02
2022-12-22T15:23:17.172Z,3.99
2022-12-22T15:25:46.822Z,3.91
2022-12-22T15:28:16.709Z,3.72
2022-12-22T15:30:46.072Z,3.61
2022-12-22T15:33:16.204Z,3.50
2022-12-22T15:35:45.228Z,3.46
2022-12-22T15:38:15.393Z,3.44
2022-12-22T15:40:44.689Z,3.39
2022-12-22T15:43:53.946Z,3.33
2022-12-22T15:46:07.507Z,3.23
2022-12-22T15:48:37.928Z,3.19
2022-12-22T15:51:09.996Z,3.21
2022-12-22T15:53:38.529Z,3.14
2022-12-22T15:56:17.376Z,3.09
2022-12-22T15:58:47.089Z,2.99
2022-12-22T16:01:17.459Z,2.92
2022-12-22T16:03:46.933Z,2.82
2022-12-22T16:06:16.927Z,2.70
2022-12-22T16:08:50.525Z,3.31
2022-12-22T16:11:19.730Z,3.15
2022-12-22T16:13:48.829Z,3.04
2022-12-22T16:16:19.354Z,2.97
2022-12-22T16:18:48.784Z,3.01
2022-12-22T16:21:19.044Z,3.00
2022-12-22T16:23:49.675Z,2.92
2022-12-22T16:26:20.223Z,2.80
2022-12-22T16:28:48.853Z,2.86
2022-12-22T16:31:20.699Z,2.72
2022-12-22T16:33:49.873Z,2.71
2022-12-22T16:36:19.603Z,2.71
2022-12-22T16:38:48.841Z,2.63
2022-12-22T16:41:20.800Z,2.64
2022-12-22T16:43:49.775Z,2.61
2022-12-22T16:46:22.196Z,2.60
2022-12-22T16:48:52.440Z,2.58
2022-12-22T16:51:24.368Z,2.52
2022-12-22T16:53:53.293Z,2.49
2022-12-22T16:56:23.708Z,2.38
2022-12-22T16:58:52.400Z,2.28
2022-12-22T17:01:35.927Z,2.24
2022-12-22T17:04:09.091Z,2.16
2022-12-22T17:06:38.122Z,2.04
2022-12-22T17:09:11.413Z,1.95
2022-12-22T17:11:40.047Z,1.87
2022-12-22T17:14:18.229Z,1.75
2022-12-22T17:16:48.055Z,1.66
2022-12-22T17:19:18.197Z,1.83
2022-12-22T17:21:46.853Z,2.01
2022-12-22T17:24:22.849Z,1.99
2022-12-22T17:26:56.240Z,2.04
2022-12-22T17:29:25.792Z,2.10
2022-12-22T17:31:57.010Z,2.01
2022-12-22T17:34:25.647Z,1.90
2022-12-22T17:36:56.937Z,1.95
2022-12-22T17:39:26.890Z,1.88
2022-12-22T17:41:57.282Z,1.83
2022-12-22T17:44:28.780Z,1.87
2022-12-22T17:46:58.838Z,1.80
2022-12-22T17:49:27.846Z,1.75
2022-12-22T17:51:56.294Z,1.89
2022-12-22T17:54:26.106Z,1.99
2022-12-22T17:56:58.446Z,1.92
2022-12-22T17:59:27.271Z,2.07
2022-12-22T18:01:55.790Z,2.12
2022-12-22T18:04:25.971Z,2.02
2022-12-22T18:06:54.465Z,1.89
2022-12-22T18:09:26.234Z,1.73
2022-12-22T18:11:56.017Z,1.73
2022-12-22T18:14:24.823Z,1.52
2022-12-22T18:16:53.443Z,1.44
2022-12-22T18:19:22.107Z,1.40
2022-12-22T18:21:52.272Z,1.71
2022-12-22T18:24:21.466Z,1.72
2022-12-22T18:26:50.145Z,1.79
2022-12-22T18:29:19.146Z,1.86
2022-12-22T18:31:47.547Z,1.75
2022-12-22T18:34:16.271Z,1.58
2022-12-22T18:36:45.868Z,1.54
2022-12-22T18:39:19.170Z,1.42
2022-12-22T18:41:48.014Z,1.35
2022-12-22T18:44:18.173Z,1.29
2022-12-22T18:46:47.150Z,1.26
2022-12-22T18:49:16.297Z,1.29
2022-12-22T18:51:45.694Z,1.32
2022-12-22T18:54:23.952Z,1.42
2022-12-22T18:56:54.077Z,1.49
2022-12-22T18:59:25.176Z,1.45
2022-12-22T19:01:54.036Z,1.52
2022-12-22T19:04:22.565Z,1.65
2022-12-22T19:06:51.541Z,1.44
2022-12-22T19:09:23.417Z,1.34
2022-12-22T19:11:52.757Z,1.18
2022-12-22T19:14:22.501Z,1.08
2022-12-22T19:16:52.384Z,1.27
2022-12-22T19:19:22.938Z,1.19
2022-12-22T19:21:53.786Z,1.28
2022-12-22T19:24:26.011Z,1.21
2022-12-22T19:26:54.889Z,1.10
2022-12-22T19:29:23.987Z,1.06
2022-12-22T19:31:52.751Z,1.04
2022-12-22T19:34:22.485Z,1.03
2022-12-22T19:36:52.186Z,1.02
2022-12-22T19:39:20.606Z,0.91
2022-12-22T19:41:52.348Z,0.84
2022-12-22T19:44:23.773Z,0.82
2022-12-22T19:46:53.086Z,0.91
2022-12-22T19:49:27.139Z,1.08
2022-12-22T19:51:56.749Z,1.21
2022-12-22T19:54:25.640Z,0.99
2022-12-22T19:56:56.890Z,0.84
2022-12-22T19:59:37.290Z,1.26
2022-12-22T20:02:25.440Z,1.12
2022-12-22T20:04:54.880Z,0.90
2022-12-22T20:07:25.355Z,0.77
2022-12-22T20:09:54.420Z,0.70
2022-12-22T20:12:27.828Z,0.61
2022-12-22T20:14:56.751Z,0.60
2022-12-22T20:17:26.123Z,0.66
2022-12-22T20:19:55.214Z,0.64
2022-12-22T20:22:25.988Z,0.53
2022-12-22T20:24:55.688Z,1.06
2022-12-22T20:27:30.636Z,0.80
2022-12-22T20:29:59.906Z,0.73
2022-12-22T20:32:29.015Z,0.85
2022-12-22T20:34:57.727Z,0.78
2022-12-22T20:37:26.738Z,0.74
2022-12-22T20:39:56.394Z,0.93
2022-12-22T20:42:27.565Z,1.08
2022-12-22T20:45:03.977Z,1.10
2022-12-22T20:47:34.301Z,1.07
2022-12-22T20:50:03.093Z,0.72
2022-12-22T20:52:32.681Z,0.54
2022-12-22T20:55:03.100Z,1.00
2022-12-22T20:57:32.835Z,1.20
2022-12-22T21:00:01.665Z,0.73
2022-12-22T21:02:30.724Z,0.56
2022-12-22T21:04:59.714Z,0.63
2022-12-22T21:07:28.296Z,0.77
2022-12-22T21:09:57.179Z,0.90
2022-12-22T21:12:25.893Z,1.38
2022-12-22T21:14:55.846Z,1.31
2022-12-22T21:17:25.716Z,1.19
2022-12-22T21:19:56.427Z,0.97
2022-12-22T21:22:24.811Z,0.96
2022-12-22T21:24:53.139Z,0.97
2022-12-22T21:27:22.114Z,0.95
2022-12-22T21:29:50.795Z,0.89
2022-12-22T21:32:21.911Z,0.92
2022-12-22T21:34:51.359Z,1.34
2022-12-22T21:37:20.471Z,1.17
2022-12-22T21:39:48.817Z,1.10
2022-12-22T21:42:17.972Z,1.24
2022-12-22T21:44:46.587Z,1.51
2022-12-22T21:47:16.171Z,1.31
2022-12-22T21:49:45.970Z,1.71
2022-12-22T21:52:14.254Z,1.56
2022-12-22T21:54:42.646Z,1.47
2022-12-22T21:57:15.933Z,1.85
2022-12-22T21:59:44.241Z,1.76
2022-12-22T22:02:16.532Z,1.51
2022-12-22T22:04:54.612Z,1.49
2022-12-22T22:07:24.008Z,1.45
2022-12-22T22:09:52.608Z,1.41
2022-12-22T22:12:38.082Z,1.24
2022-12-22T22:15:08.294Z,1.28
2022-12-22T22:17:36.706Z,1.38
2022-12-22T22:20:09.966Z,1.27
2022-12-22T22:22:38.300Z,1.29
2022-12-22T22:25:07.841Z,1.26
2022-12-22T22:27:36.209Z,1.19
2022-12-22T22:30:05.335Z,1.20
2022-12-22T22:32:33.926Z,1.17
2022-12-22T22:35:02.211Z,1.14
2022-12-22T22:37:33.122Z,1.10
2022-12-22T22:40:01.574Z,1.08
2022-12-22T22:42:29.932Z,1.03
2022-12-22T22:44:58.422Z,0.93
2022-12-22T22:47:26.842Z,0.92
2022-12-22T22:49:55.238Z,0.87
2022-12-22T22:52:23.710Z,0.81
2022-12-22T22:54:58.153Z,0.60
2022-12-22T22:57:26.492Z,0.41
2022-12-22T22:59:55.956Z,0.50
2022-12-22T23:02:24.677Z,0.32
2022-12-22T23:04:53.138Z,0.26
2022-12-22T23:07:21.629Z,0.15
2022-12-22T23:09:50.107Z,0.11
2022-12-22T23:12:19.979Z,0.04
2022-12-22T23:14:48.456Z,-0.02
2022-12-22T23:17:16.777Z,-0.08
2022-12-22T23:19:47.069Z,-0.13
2022-12-22T23:22:15.404Z,-0.15
2022-12-22T23:24:43.703Z,-0.20
2022-12-22T23:27:12.855Z,-0.21
2022-12-22T23:29:43.108Z,-0.14
2022-12-22T23:32:11.469Z,-0.25
2022-12-22T23:34:39.861Z,-0.24
2022-12-22T23:37:18.676Z,-0.30
2022-12-22T23:39:47.803Z,-0.24
2022-12-22T23:42:16.254Z,-0.30
2022-12-22T23:44:46.064Z,-0.34
2022-12-22T23:47:14.532Z,-0.43
2022-12-22T23:49:42.941Z,-0.47
2022-12-22T23:52:11.293Z,-0.31
2022-12-22T23:54:41.474Z,-0.39
2022-12-22T23:57:10.096Z,-0.34
2022-12-22T23:59:38.554Z,-0.34
